sensor_id;sensor_type;location;lat;lon;timestamp;temperature;humidity
53294;DHT22;39181;53.440;5.644;2023-11-21T00:00:15;10.60;99.90
53294;DHT22;39181;53.440;5.644;2023-11-21T00:02:41;10.60;99.90
53294;DHT22;39181;53.440;5.644;2023-11-21T00:05:11;10.90;99.90
53294;DHT22;39181;53.440;5.644;2023-11-21T00:07:38;10.60;99.90
53294;DHT22;39181;53.440;5.644;2023-11-21T00:10:04;10.90;99.90
53294;DHT22;39181;53.440;5.644;2023-11-21T00:12:31;11.00;99.90
53294;DHT22;39181;53.440;5.644;2023-11-21T00:14:57;10.80;99.90
53294;DHT22;39181;53.440;5.644;2023-11-21T00:17:23;11.00;99.90
53294;DHT22;39181;53.440;5.644;2023-11-21T00:19:48;11.00;99.90
53294;DHT22;39181;53.440;5.644;2023-11-21T00:22:14;11.50;99.90
53294;DHT22;39181;53.440;5.644;2023-11-21T00:24:41;10.90;99.90
53294;DHT22;39181;53.440;5.644;2023-11-21T00:27:06;10.90;99.90
53294;DHT22;39181;53.440;5.644;2023-11-21T00:29:32;11.10;99.90
53294;DHT22;39181;53.440;5.644;2023-11-21T00:31:58;10.90;99.90
53294;DHT22;39181;53.440;5.644;2023-11-21T00:34:23;11.30;99.90
53294;DHT22;39181;53.440;5.644;2023-11-21T00:36:49;10.90;99.90
53294;DHT22;39181;53.440;5.644;2023-11-21T00:39:14;11.10;99.90
53294;DHT22;39181;53.440;5.644;2023-11-21T00:41:41;11.20;99.90
53294;DHT22;39181;53.440;5.644;2023-11-21T00:44:07;11.00;99.90
53294;DHT22;39181;53.440;5.644;2023-11-21T00:46:33;11.40;99.90
53294;DHT22;39181;53.440;5.644;2023-11-21T00:48:58;11.20;99.90
53294;DHT22;39181;53.440;5.644;2023-11-21T00:51:24;11.30;99.90
53294;DHT22;39181;53.440;5.644;2023-11-21T00:53:50;11.50;99.90
53294;DHT22;39181;53.440;5.644;2023-11-21T00:56:15;11.40;99.90
53294;DHT22;39181;53.440;5.644;2023-11-21T00:58:41;11.60;99.90
53294;DHT22;39181;53.440;5.644;2023-11-21T01:01:15;11.30;99.90
53294;DHT22;39181;53.440;5.644;2023-11-21T01:03:40;11.20;99.90
53294;DHT22;39181;53.440;5.644;2023-11-21T01:06:06;11.40;99.90
53294;DHT22;39181;53.440;5.644;2023-11-21T01:08:32;11.10;99.90
53294;DHT22;39181;53.440;5.644;2023-11-21T01:10:58;11.60;99.90
53294;DHT22;39181;53.440;5.644;2023-11-21T01:13:23;11.60;99.90
53294;DHT22;39181;53.440;5.644;2023-11-21T01:15:49;11.20;99.90
53294;DHT22;39181;53.440;5.644;2023-11-21T01:18:14;11.10;99.90
53294;DHT22;39181;53.440;5.644;2023-11-21T01:20:40;11.40;99.90
53294;DHT22;39181;53.440;5.644;2023-11-21T01:23:06;11.10;99.90
53294;DHT22;39181;53.440;5.644;2023-11-21T01:25:31;11.60;99.90
53294;DHT22;39181;53.440;5.644;2023-11-21T01:27:57;11.30;99.90
53294;DHT22;39181;53.440;5.644;2023-11-21T01:30:22;11.60;99.90
53294;DHT22;39181;53.440;5.644;2023-11-21T01:32:48;11.20;99.90
53294;DHT22;39181;53.440;5.644;2023-11-21T01:35:13;11.20;99.90
53294;DHT22;39181;53.440;5.644;2023-11-21T01:37:39;11.40;99.90
53294;DHT22;39181;53.440;5.644;2023-11-21T01:40:05;11.30;99.90
53294;DHT22;39181;53.440;5.644;2023-11-21T01:42:35;10.90;99.90
53294;DHT22;39181;53.440;5.644;2023-11-21T01:45:01;11.20;99.90
53294;DHT22;39181;53.440;5.644;2023-11-21T01:47:34;11.20;99.90
53294;DHT22;39181;53.440;5.644;2023-11-21T01:50:01;10.90;99.90
53294;DHT22;39181;53.440;5.644;2023-11-21T01:52:30;10.90;99.90
53294;DHT22;39181;53.440;5.644;2023-11-21T01:54:57;11.20;99.90
53294;DHT22;39181;53.440;5.644;2023-11-21T01:57:23;11.30;99.90
53294;DHT22;39181;53.440;5.644;2023-11-21T01:59:49;11.30;99.90
53294;DHT22;39181;53.440;5.644;2023-11-21T02:02:15;11.20;99.90
53294;DHT22;39181;53.440;5.644;2023-11-21T02:04:41;11.20;99.90
53294;DHT22;39181;53.440;5.644;2023-11-21T02:07:07;10.80;99.90
53294;DHT22;39181;53.440;5.644;2023-11-21T02:09:32;11.30;99.90
53294;DHT22;39181;53.440;5.644;2023-11-21T02:12:03;11.30;99.90
53294;DHT22;39181;53.440;5.644;2023-11-21T02:14:30;11.30;99.90
53294;DHT22;39181;53.440;5.644;2023-11-21T02:16:56;11.20;99.90
53294;DHT22;39181;53.440;5.644;2023-11-21T02:19:26;11.30;99.90
53294;DHT22;39181;53.440;5.644;2023-11-21T02:21:52;11.30;99.90
53294;DHT22;39181;53.440;5.644;2023-11-21T02:24:21;11.30;99.90
53294;DHT22;39181;53.440;5.644;2023-11-21T02:26:48;11.30;99.90
53294;DHT22;39181;53.440;5.644;2023-11-21T02:29:14;11.30;99.90
53294;DHT22;39181;53.440;5.644;2023-11-21T02:31:42;11.40;99.90
53294;DHT22;39181;53.440;5.644;2023-11-21T02:34:16;11.10;99.90
53294;DHT22;39181;53.440;5.644;2023-11-21T02:36:45;11.00;99.90
53294;DHT22;39181;53.440;5.644;2023-11-21T02:39:10;11.50;99.90
53294;DHT22;39181;53.440;5.644;2023-11-21T02:41:39;11.20;99.90
53294;DHT22;39181;53.440;5.644;2023-11-21T02:44:08;11.00;99.90
53294;DHT22;39181;53.440;5.644;2023-11-21T02:46:35;11.30;99.90
53294;DHT22;39181;53.440;5.644;2023-11-21T02:49:02;11.20;99.90
53294;DHT22;39181;53.440;5.644;2023-11-21T02:51:29;11.20;99.90
53294;DHT22;39181;53.440;5.644;2023-11-21T02:53:54;11.20;99.90
53294;DHT22;39181;53.440;5.644;2023-11-21T02:56:24;10.90;99.90
53294;DHT22;39181;53.440;5.644;2023-11-21T02:58:50;10.80;99.90
53294;DHT22;39181;53.440;5.644;2023-11-21T03:01:15;10.50;99.90
53294;DHT22;39181;53.440;5.644;2023-11-21T03:03:42;11.10;99.90
53294;DHT22;39181;53.440;5.644;2023-11-21T03:06:08;10.60;99.90
53294;DHT22;39181;53.440;5.644;2023-11-21T03:08:34;10.40;99.90
53294;DHT22;39181;53.440;5.644;2023-11-21T03:11:00;10.90;99.90
53294;DHT22;39181;53.440;5.644;2023-11-21T03:13:25;10.90;99.90
53294;DHT22;39181;53.440;5.644;2023-11-21T03:15:51;10.20;99.90
53294;DHT22;39181;53.440;5.644;2023-11-21T03:18:16;10.10;99.90
53294;DHT22;39181;53.440;5.644;2023-11-21T03:20:43;10.20;99.90
53294;DHT22;39181;53.440;5.644;2023-11-21T03:23:11;10.40;99.90
53294;DHT22;39181;53.440;5.644;2023-11-21T03:25:37;10.50;99.90
53294;DHT22;39181;53.440;5.644;2023-11-21T03:28:03;10.70;99.90
53294;DHT22;39181;53.440;5.644;2023-11-21T03:30:28;10.10;99.90
53294;DHT22;39181;53.440;5.644;2023-11-21T03:32:54;10.70;99.90
53294;DHT22;39181;53.440;5.644;2023-11-21T03:35:20;10.60;99.90
53294;DHT22;39181;53.440;5.644;2023-11-21T03:37:46;10.60;99.90
53294;DHT22;39181;53.440;5.644;2023-11-21T03:40:12;10.00;99.90
53294;DHT22;39181;53.440;5.644;2023-11-21T03:42:38;10.70;99.90
53294;DHT22;39181;53.440;5.644;2023-11-21T03:45:05;10.10;99.90
53294;DHT22;39181;53.440;5.644;2023-11-21T03:47:31;10.70;99.90
53294;DHT22;39181;53.440;5.644;2023-11-21T03:49:57;10.00;99.90
53294;DHT22;39181;53.440;5.644;2023-11-21T03:52:22;10.20;99.90
53294;DHT22;39181;53.440;5.644;2023-11-21T03:54:48;10.20;99.90
53294;DHT22;39181;53.440;5.644;2023-11-21T03:57:13;10.50;99.90
53294;DHT22;39181;53.440;5.644;2023-11-21T03:59:42;10.50;99.90
53294;DHT22;39181;53.440;5.644;2023-11-21T04:02:08;10.10;99.90
53294;DHT22;39181;53.440;5.644;2023-11-21T04:04:35;10.80;99.90
53294;DHT22;39181;53.440;5.644;2023-11-21T04:07:01;10.20;99.90
53294;DHT22;39181;53.440;5.644;2023-11-21T04:09:26;10.20;99.90
53294;DHT22;39181;53.440;5.644;2023-11-21T04:11:52;10.20;99.90
53294;DHT22;39181;53.440;5.644;2023-11-21T04:14:18;10.70;99.90
53294;DHT22;39181;53.440;5.644;2023-11-21T04:16:44;10.90;99.90
53294;DHT22;39181;53.440;5.644;2023-11-21T04:19:09;10.90;99.90
53294;DHT22;39181;53.440;5.644;2023-11-21T04:21:36;10.20;99.90
53294;DHT22;39181;53.440;5.644;2023-11-21T04:24:02;10.30;99.90
53294;DHT22;39181;53.440;5.644;2023-11-21T04:26:27;10.20;99.90
53294;DHT22;39181;53.440;5.644;2023-11-21T04:28:53;10.20;99.90
53294;DHT22;39181;53.440;5.644;2023-11-21T04:31:18;10.20;99.90
53294;DHT22;39181;53.440;5.644;2023-11-21T04:33:44;10.20;99.90
53294;DHT22;39181;53.440;5.644;2023-11-21T04:36:10;9.90;99.90
53294;DHT22;39181;53.440;5.644;2023-11-21T04:38:36;9.90;99.90
53294;DHT22;39181;53.440;5.644;2023-11-21T04:41:02;9.90;99.90
53294;DHT22;39181;53.440;5.644;2023-11-21T04:43:27;10.40;99.90
53294;DHT22;39181;53.440;5.644;2023-11-21T04:45:54;10.30;99.90
53294;DHT22;39181;53.440;5.644;2023-11-21T04:48:20;9.90;99.90
53294;DHT22;39181;53.440;5.644;2023-11-21T04:50:45;10.30;99.90
53294;DHT22;39181;53.440;5.644;2023-11-21T04:53:11;10.20;99.90
53294;DHT22;39181;53.440;5.644;2023-11-21T04:55:39;10.10;99.90
53294;DHT22;39181;53.440;5.644;2023-11-21T04:58:05;9.60;99.90
53294;DHT22;39181;53.440;5.644;2023-11-21T05:00:30;9.60;99.90
53294;DHT22;39181;53.440;5.644;2023-11-21T05:02:56;10.40;99.90
53294;DHT22;39181;53.440;5.644;2023-11-21T05:05:21;9.80;99.90
53294;DHT22;39181;53.440;5.644;2023-11-21T05:07:47;10.20;99.90
53294;DHT22;39181;53.440;5.644;2023-11-21T05:10:14;9.80;99.90
53294;DHT22;39181;53.440;5.644;2023-11-21T05:12:41;9.90;99.90
53294;DHT22;39181;53.440;5.644;2023-11-21T05:15:08;10.00;99.90
53294;DHT22;39181;53.440;5.644;2023-11-21T05:17:39;10.40;99.90
53294;DHT22;39181;53.440;5.644;2023-11-21T05:20:08;9.60;99.90
53294;DHT22;39181;53.440;5.644;2023-11-21T05:22:35;9.60;99.90
53294;DHT22;39181;53.440;5.644;2023-11-21T05:25:02;9.70;99.90
53294;DHT22;39181;53.440;5.644;2023-11-21T05:27:29;9.60;99.90
53294;DHT22;39181;53.440;5.644;2023-11-21T05:29:56;10.00;99.90
53294;DHT22;39181;53.440;5.644;2023-11-21T05:32:22;10.40;99.90
53294;DHT22;39181;53.440;5.644;2023-11-21T05:34:49;10.50;99.90
53294;DHT22;39181;53.440;5.644;2023-11-21T05:37:14;9.60;99.90
53294;DHT22;39181;53.440;5.644;2023-11-21T05:39:40;9.60;99.90
53294;DHT22;39181;53.440;5.644;2023-11-21T05:42:05;9.70;99.90
53294;DHT22;39181;53.440;5.644;2023-11-21T05:44:31;10.40;99.90
53294;DHT22;39181;53.440;5.644;2023-11-21T05:46:57;10.30;99.90
53294;DHT22;39181;53.440;5.644;2023-11-21T05:49:24;9.80;99.90
53294;DHT22;39181;53.440;5.644;2023-11-21T05:51:53;10.00;99.90
53294;DHT22;39181;53.440;5.644;2023-11-21T05:54:19;10.40;99.90
53294;DHT22;39181;53.440;5.644;2023-11-21T05:56:45;10.00;99.90
53294;DHT22;39181;53.440;5.644;2023-11-21T05:59:12;10.40;99.90
53294;DHT22;39181;53.440;5.644;2023-11-21T06:01:38;9.60;99.90
53294;DHT22;39181;53.440;5.644;2023-11-21T06:04:05;9.60;99.90
53294;DHT22;39181;53.440;5.644;2023-11-21T06:06:30;9.60;99.90
53294;DHT22;39181;53.440;5.644;2023-11-21T06:08:57;9.60;99.90
53294;DHT22;39181;53.440;5.644;2023-11-21T06:11:22;9.60;99.90
53294;DHT22;39181;53.440;5.644;2023-11-21T06:13:52;9.70;99.90
53294;DHT22;39181;53.440;5.644;2023-11-21T06:16:21;9.80;99.90
53294;DHT22;39181;53.440;5.644;2023-11-21T06:18:47;10.10;99.90
53294;DHT22;39181;53.440;5.644;2023-11-21T06:21:12;9.70;99.90
53294;DHT22;39181;53.440;5.644;2023-11-21T06:23:39;10.00;99.90
53294;DHT22;39181;53.440;5.644;2023-11-21T06:26:05;10.20;99.90
53294;DHT22;39181;53.440;5.644;2023-11-21T06:28:32;9.60;99.90
53294;DHT22;39181;53.440;5.644;2023-11-21T06:30:57;10.30;99.90
53294;DHT22;39181;53.440;5.644;2023-11-21T06:33:24;9.80;99.90
53294;DHT22;39181;53.440;5.644;2023-11-21T06:35:50;10.10;99.90
53294;DHT22;39181;53.440;5.644;2023-11-21T06:38:16;10.20;99.90
53294;DHT22;39181;53.440;5.644;2023-11-21T06:40:42;9.70;99.90
53294;DHT22;39181;53.440;5.644;2023-11-21T06:43:07;9.90;99.90
53294;DHT22;39181;53.440;5.644;2023-11-21T06:45:33;9.80;99.90
53294;DHT22;39181;53.440;5.644;2023-11-21T06:48:00;9.60;99.90
53294;DHT22;39181;53.440;5.644;2023-11-21T06:50:25;10.20;99.90
53294;DHT22;39181;53.440;5.644;2023-11-21T06:52:51;9.90;99.90
53294;DHT22;39181;53.440;5.644;2023-11-21T06:55:17;10.20;99.90
53294;DHT22;39181;53.440;5.644;2023-11-21T06:57:43;10.30;99.90
53294;DHT22;39181;53.440;5.644;2023-11-21T07:00:10;9.90;99.90
53294;DHT22;39181;53.440;5.644;2023-11-21T07:02:36;10.20;99.90
53294;DHT22;39181;53.440;5.644;2023-11-21T07:05:02;9.60;99.90
53294;DHT22;39181;53.440;5.644;2023-11-21T07:07:28;10.00;99.90
53294;DHT22;39181;53.440;5.644;2023-11-21T07:09:54;10.00;99.90
53294;DHT22;39181;53.440;5.644;2023-11-21T07:12:19;9.70;99.90
53294;DHT22;39181;53.440;5.644;2023-11-21T07:14:45;9.90;99.90
53294;DHT22;39181;53.440;5.644;2023-11-21T07:17:11;9.90;99.90
53294;DHT22;39181;53.440;5.644;2023-11-21T07:19:38;10.00;99.90
53294;DHT22;39181;53.440;5.644;2023-11-21T07:22:03;10.10;99.90
53294;DHT22;39181;53.440;5.644;2023-11-21T07:24:31;9.70;99.90
53294;DHT22;39181;53.440;5.644;2023-11-21T07:26:57;10.10;99.90
53294;DHT22;39181;53.440;5.644;2023-11-21T07:29:25;10.10;99.90
53294;DHT22;39181;53.440;5.644;2023-11-21T07:31:52;10.00;99.90
53294;DHT22;39181;53.440;5.644;2023-11-21T07:34:19;9.60;99.90
53294;DHT22;39181;53.440;5.644;2023-11-21T07:36:45;9.60;99.90
53294;DHT22;39181;53.440;5.644;2023-11-21T07:39:11;10.10;99.90
53294;DHT22;39181;53.440;5.644;2023-11-21T07:41:36;9.60;99.90
53294;DHT22;39181;53.440;5.644;2023-11-21T07:44:03;10.10;99.90
53294;DHT22;39181;53.440;5.644;2023-11-21T07:46:29;9.50;99.90
53294;DHT22;39181;53.440;5.644;2023-11-21T07:48:55;10.10;99.90
53294;DHT22;39181;53.440;5.644;2023-11-21T07:51:20;10.00;99.90
53294;DHT22;39181;53.440;5.644;2023-11-21T07:53:46;9.70;99.90
53294;DHT22;39181;53.440;5.644;2023-11-21T07:56:12;9.70;99.90
53294;DHT22;39181;53.440;5.644;2023-11-21T07:58:38;9.70;99.90
53294;DHT22;39181;53.440;5.644;2023-11-21T08:01:04;9.70;99.90
53294;DHT22;39181;53.440;5.644;2023-11-21T08:03:30;9.80;99.90
53294;DHT22;39181;53.440;5.644;2023-11-21T08:05:57;9.70;99.90
53294;DHT22;39181;53.440;5.644;2023-11-21T08:08:23;9.90;99.90
53294;DHT22;39181;53.440;5.644;2023-11-21T08:10:49;9.70;99.90
53294;DHT22;39181;53.440;5.644;2023-11-21T08:13:25;9.60;99.90
53294;DHT22;39181;53.440;5.644;2023-11-21T08:15:54;9.80;99.90
53294;DHT22;39181;53.440;5.644;2023-11-21T08:18:19;9.70;99.90
53294;DHT22;39181;53.440;5.644;2023-11-21T08:20:45;10.10;99.90
53294;DHT22;39181;53.440;5.644;2023-11-21T08:23:14;9.60;99.90
53294;DHT22;39181;53.440;5.644;2023-11-21T08:25:41;10.10;99.90
53294;DHT22;39181;53.440;5.644;2023-11-21T08:28:07;9.90;99.90
53294;DHT22;39181;53.440;5.644;2023-11-21T08:30:33;10.00;99.90
53294;DHT22;39181;53.440;5.644;2023-11-21T08:33:00;9.70;99.90
53294;DHT22;39181;53.440;5.644;2023-11-21T08:35:25;9.60;99.90
53294;DHT22;39181;53.440;5.644;2023-11-21T08:37:52;10.00;99.90
53294;DHT22;39181;53.440;5.644;2023-11-21T08:40:18;10.00;99.90
53294;DHT22;39181;53.440;5.644;2023-11-21T08:42:45;10.10;99.90
53294;DHT22;39181;53.440;5.644;2023-11-21T08:45:11;10.10;99.90
53294;DHT22;39181;53.440;5.644;2023-11-21T08:47:39;9.70;99.90
53294;DHT22;39181;53.440;5.644;2023-11-21T08:50:06;10.50;99.90
53294;DHT22;39181;53.440;5.644;2023-11-21T08:52:34;10.10;99.90
53294;DHT22;39181;53.440;5.644;2023-11-21T08:54:59;9.60;99.90
53294;DHT22;39181;53.440;5.644;2023-11-21T08:57:28;10.00;99.90
53294;DHT22;39181;53.440;5.644;2023-11-21T08:59:54;10.00;99.90
53294;DHT22;39181;53.440;5.644;2023-11-21T09:02:26;9.80;99.90
53294;DHT22;39181;53.440;5.644;2023-11-21T09:04:52;9.70;99.90
53294;DHT22;39181;53.440;5.644;2023-11-21T09:07:18;10.00;99.90
53294;DHT22;39181;53.440;5.644;2023-11-21T09:09:46;9.80;99.90
53294;DHT22;39181;53.440;5.644;2023-11-21T09:12:12;9.60;99.90
53294;DHT22;39181;53.440;5.644;2023-11-21T09:14:38;9.90;99.90
53294;DHT22;39181;53.440;5.644;2023-11-21T09:17:04;9.70;99.90
53294;DHT22;39181;53.440;5.644;2023-11-21T09:19:38;9.60;99.90
53294;DHT22;39181;53.440;5.644;2023-11-21T09:22:05;9.70;99.90
53294;DHT22;39181;53.440;5.644;2023-11-21T09:24:31;10.00;99.90
53294;DHT22;39181;53.440;5.644;2023-11-21T09:26:57;10.00;99.90
53294;DHT22;39181;53.440;5.644;2023-11-21T09:29:22;9.50;99.90
53294;DHT22;39181;53.440;5.644;2023-11-21T09:31:48;9.50;99.90
53294;DHT22;39181;53.440;5.644;2023-11-21T09:34:16;9.50;99.90
53294;DHT22;39181;53.440;5.644;2023-11-21T09:36:45;9.70;99.90
53294;DHT22;39181;53.440;5.644;2023-11-21T09:39:11;9.30;99.90
53294;DHT22;39181;53.440;5.644;2023-11-21T09:41:46;9.30;99.90
53294;DHT22;39181;53.440;5.644;2023-11-21T09:44:18;9.50;99.90
53294;DHT22;39181;53.440;5.644;2023-11-21T09:46:47;9.50;99.90
53294;DHT22;39181;53.440;5.644;2023-11-21T09:49:15;9.30;99.90
53294;DHT22;39181;53.440;5.644;2023-11-21T09:51:46;9.20;99.90
53294;DHT22;39181;53.440;5.644;2023-11-21T09:54:15;9.50;99.90
53294;DHT22;39181;53.440;5.644;2023-11-21T09:56:42;9.60;99.90
53294;DHT22;39181;53.440;5.644;2023-11-21T09:59:13;9.20;99.90
53294;DHT22;39181;53.440;5.644;2023-11-21T10:01:40;9.30;99.90
53294;DHT22;39181;53.440;5.644;2023-11-21T10:04:06;9.40;99.90
53294;DHT22;39181;53.440;5.644;2023-11-21T10:06:41;9.20;99.90
53294;DHT22;39181;53.440;5.644;2023-11-21T10:09:09;9.10;99.90
53294;DHT22;39181;53.440;5.644;2023-11-21T10:11:40;9.20;99.90
53294;DHT22;39181;53.440;5.644;2023-11-21T10:14:08;8.90;99.90
53294;DHT22;39181;53.440;5.644;2023-11-21T10:16:36;9.20;99.90
53294;DHT22;39181;53.440;5.644;2023-11-21T10:19:04;9.20;99.90
53294;DHT22;39181;53.440;5.644;2023-11-21T10:21:32;8.80;99.90
53294;DHT22;39181;53.440;5.644;2023-11-21T10:23:58;9.00;99.90
53294;DHT22;39181;53.440;5.644;2023-11-21T10:26:26;9.10;99.90
53294;DHT22;39181;53.440;5.644;2023-11-21T10:28:59;9.20;99.90
53294;DHT22;39181;53.440;5.644;2023-11-21T10:31:27;8.90;99.90
53294;DHT22;39181;53.440;5.644;2023-11-21T10:33:52;9.00;99.90
53294;DHT22;39181;53.440;5.644;2023-11-21T10:36:29;9.00;99.90
53294;DHT22;39181;53.440;5.644;2023-11-21T10:38:55;9.20;99.90
53294;DHT22;39181;53.440;5.644;2023-11-21T10:41:22;9.30;99.90
53294;DHT22;39181;53.440;5.644;2023-11-21T10:43:48;8.90;99.90
53294;DHT22;39181;53.440;5.644;2023-11-21T10:46:14;9.00;99.90
53294;DHT22;39181;53.440;5.644;2023-11-21T10:48:44;9.00;99.90
53294;DHT22;39181;53.440;5.644;2023-11-21T10:51:09;9.10;99.90
53294;DHT22;39181;53.440;5.644;2023-11-21T10:53:39;8.90;99.90
53294;DHT22;39181;53.440;5.644;2023-11-21T10:56:06;9.00;99.90
53294;DHT22;39181;53.440;5.644;2023-11-21T10:58:39;8.90;99.90
53294;DHT22;39181;53.440;5.644;2023-11-21T11:01:06;8.90;99.90
53294;DHT22;39181;53.440;5.644;2023-11-21T11:03:34;9.00;99.90
53294;DHT22;39181;53.440;5.644;2023-11-21T11:06:02;9.00;99.90
53294;DHT22;39181;53.440;5.644;2023-11-21T11:08:29;8.90;99.90
53294;DHT22;39181;53.440;5.644;2023-11-21T11:10:55;8.90;99.90
53294;DHT22;39181;53.440;5.644;2023-11-21T11:13:21;8.90;99.90
53294;DHT22;39181;53.440;5.644;2023-11-21T11:15:48;8.90;99.90
53294;DHT22;39181;53.440;5.644;2023-11-21T11:18:15;9.00;99.90
53294;DHT22;39181;53.440;5.644;2023-11-21T11:20:43;9.20;99.90
53294;DHT22;39181;53.440;5.644;2023-11-21T11:34:32;9.40;99.90
53294;DHT22;39181;53.440;5.644;2023-11-21T11:37:07;8.90;99.90
53294;DHT22;39181;53.440;5.644;2023-11-21T11:39:38;8.90;99.90
53294;DHT22;39181;53.440;5.644;2023-11-21T11:42:10;9.00;99.90
53294;DHT22;39181;53.440;5.644;2023-11-21T11:47:15;9.00;99.90
53294;DHT22;39181;53.440;5.644;2023-11-21T11:50:03;8.80;99.90
53294;DHT22;39181;53.440;5.644;2023-11-21T11:55:15;8.70;99.90
53294;DHT22;39181;53.440;5.644;2023-11-21T11:57:44;8.20;99.90
53294;DHT22;39181;53.440;5.644;2023-11-21T12:02:59;8.50;99.90
53294;DHT22;39181;53.440;5.644;2023-11-21T12:05:28;8.40;99.90
53294;DHT22;39181;53.440;5.644;2023-11-21T12:07:55;8.60;99.90
53294;DHT22;39181;53.440;5.644;2023-11-21T12:10:27;8.30;99.90
53294;DHT22;39181;53.440;5.644;2023-11-21T12:12:56;8.10;99.90
53294;DHT22;39181;53.440;5.644;2023-11-21T12:15:22;8.50;99.90
53294;DHT22;39181;53.440;5.644;2023-11-21T12:17:49;8.20;99.90
53294;DHT22;39181;53.440;5.644;2023-11-21T12:20:18;8.20;99.90
53294;DHT22;39181;53.440;5.644;2023-11-21T12:25:09;8.50;99.90
53294;DHT22;39181;53.440;5.644;2023-11-21T12:27:34;8.40;99.90
53294;DHT22;39181;53.440;5.644;2023-11-21T12:30:00;8.30;99.90
53294;DHT22;39181;53.440;5.644;2023-11-21T12:32:26;8.40;99.90
53294;DHT22;39181;53.440;5.644;2023-11-21T12:34:52;8.30;99.90
53294;DHT22;39181;53.440;5.644;2023-11-21T12:37:18;7.90;99.90
53294;DHT22;39181;53.440;5.644;2023-11-21T12:39:43;8.20;99.90
53294;DHT22;39181;53.440;5.644;2023-11-21T12:42:09;8.30;99.90
53294;DHT22;39181;53.440;5.644;2023-11-21T12:44:35;8.20;99.90
53294;DHT22;39181;53.440;5.644;2023-11-21T12:47:02;8.30;99.90
53294;DHT22;39181;53.440;5.644;2023-11-21T12:49:29;8.10;99.90
53294;DHT22;39181;53.440;5.644;2023-11-21T12:51:54;7.90;99.90
53294;DHT22;39181;53.440;5.644;2023-11-21T12:54:20;8.00;99.90
53294;DHT22;39181;53.440;5.644;2023-11-21T12:56:46;8.00;99.90
53294;DHT22;39181;53.440;5.644;2023-11-21T12:59:14;8.10;99.90
53294;DHT22;39181;53.440;5.644;2023-11-21T13:01:44;8.20;99.90
53294;DHT22;39181;53.440;5.644;2023-11-21T13:04:11;8.20;99.90
53294;DHT22;39181;53.440;5.644;2023-11-21T13:06:37;8.30;99.90
53294;DHT22;39181;53.440;5.644;2023-11-21T13:09:07;8.50;99.90
53294;DHT22;39181;53.440;5.644;2023-11-21T13:11:36;8.40;99.90
53294;DHT22;39181;53.440;5.644;2023-11-21T13:14:02;8.60;99.90
53294;DHT22;39181;53.440;5.644;2023-11-21T13:16:29;8.20;99.90
53294;DHT22;39181;53.440;5.644;2023-11-21T13:18:55;8.30;99.90
53294;DHT22;39181;53.440;5.644;2023-11-21T13:21:21;8.50;99.90
53294;DHT22;39181;53.440;5.644;2023-11-21T13:23:47;8.70;99.90
53294;DHT22;39181;53.440;5.644;2023-11-21T13:26:15;8.20;99.90
53294;DHT22;39181;53.440;5.644;2023-11-21T13:28:41;8.40;99.90
53294;DHT22;39181;53.440;5.644;2023-11-21T13:31:11;8.20;99.90
53294;DHT22;39181;53.440;5.644;2023-11-21T13:33:56;8.50;99.90
53294;DHT22;39181;53.440;5.644;2023-11-21T13:36:24;8.50;99.90
53294;DHT22;39181;53.440;5.644;2023-11-21T13:38:51;8.20;99.90
53294;DHT22;39181;53.440;5.644;2023-11-21T13:41:20;8.80;99.90
53294;DHT22;39181;53.440;5.644;2023-11-21T13:43:53;8.40;99.90
53294;DHT22;39181;53.440;5.644;2023-11-21T13:46:24;8.20;99.90
53294;DHT22;39181;53.440;5.644;2023-11-21T13:48:50;8.20;99.90
53294;DHT22;39181;53.440;5.644;2023-11-21T13:51:20;8.30;99.90
53294;DHT22;39181;53.440;5.644;2023-11-21T13:53:54;8.50;99.90
53294;DHT22;39181;53.440;5.644;2023-11-21T13:56:20;8.30;99.90
53294;DHT22;39181;53.440;5.644;2023-11-21T13:58:49;7.90;99.90
53294;DHT22;39181;53.440;5.644;2023-11-21T14:01:24;7.90;99.90
53294;DHT22;39181;53.440;5.644;2023-11-21T14:04:02;7.80;99.90
53294;DHT22;39181;53.440;5.644;2023-11-21T14:06:37;7.90;99.90
53294;DHT22;39181;53.440;5.644;2023-11-21T14:09:14;7.70;99.90
53294;DHT22;39181;53.440;5.644;2023-11-21T14:11:51;8.10;99.90
53294;DHT22;39181;53.440;5.644;2023-11-21T14:14:18;7.70;99.90
53294;DHT22;39181;53.440;5.644;2023-11-21T14:16:44;7.50;99.90
53294;DHT22;39181;53.440;5.644;2023-11-21T14:19:10;8.10;99.90
53294;DHT22;39181;53.440;5.644;2023-11-21T14:21:41;7.50;99.90
53294;DHT22;39181;53.440;5.644;2023-11-21T14:24:11;7.90;99.90
53294;DHT22;39181;53.440;5.644;2023-11-21T14:26:42;7.70;99.90
53294;DHT22;39181;53.440;5.644;2023-11-21T14:29:08;7.90;99.90
53294;DHT22;39181;53.440;5.644;2023-11-21T14:31:34;7.80;99.90
53294;DHT22;39181;53.440;5.644;2023-11-21T14:34:00;7.60;99.90
53294;DHT22;39181;53.440;5.644;2023-11-21T14:36:28;7.20;99.90
53294;DHT22;39181;53.440;5.644;2023-11-21T14:38:53;7.50;99.90
53294;DHT22;39181;53.440;5.644;2023-11-21T14:41:19;7.80;99.90
53294;DHT22;39181;53.440;5.644;2023-11-21T14:43:45;7.20;99.90
53294;DHT22;39181;53.440;5.644;2023-11-21T14:46:13;7.80;99.90
53294;DHT22;39181;53.440;5.644;2023-11-21T14:48:42;7.80;99.90
53294;DHT22;39181;53.440;5.644;2023-11-21T14:51:11;7.40;99.90
53294;DHT22;39181;53.440;5.644;2023-11-21T14:53:59;7.20;99.90
53294;DHT22;39181;53.440;5.644;2023-11-21T14:56:35;7.60;99.90
53294;DHT22;39181;53.440;5.644;2023-11-21T14:59:03;7.60;99.90
53294;DHT22;39181;53.440;5.644;2023-11-21T15:01:41;7.60;99.90
53294;DHT22;39181;53.440;5.644;2023-11-21T15:04:21;7.70;99.90
53294;DHT22;39181;53.440;5.644;2023-11-21T15:07:04;7.10;99.90
53294;DHT22;39181;53.440;5.644;2023-11-21T15:09:30;7.50;99.90
53294;DHT22;39181;53.440;5.644;2023-11-21T15:11:59;7.10;99.90
53294;DHT22;39181;53.440;5.644;2023-11-21T15:14:48;7.30;99.90
53294;DHT22;39181;53.440;5.644;2023-11-21T15:17:17;6.90;99.90
53294;DHT22;39181;53.440;5.644;2023-11-21T15:19:52;6.90;99.90
53294;DHT22;39181;53.440;5.644;2023-11-21T15:22:19;6.90;99.90
53294;DHT22;39181;53.440;5.644;2023-11-21T15:24:45;7.20;99.90
53294;DHT22;39181;53.440;5.644;2023-11-21T15:27:13;7.00;99.90
53294;DHT22;39181;53.440;5.644;2023-11-21T15:29:39;6.80;99.90
53294;DHT22;39181;53.440;5.644;2023-11-21T15:32:06;6.90;99.90
53294;DHT22;39181;53.440;5.644;2023-11-21T15:34:32;6.90;99.90
53294;DHT22;39181;53.440;5.644;2023-11-21T15:36:58;6.90;99.90
53294;DHT22;39181;53.440;5.644;2023-11-21T15:39:24;7.40;99.90
53294;DHT22;39181;53.440;5.644;2023-11-21T15:41:54;7.00;99.90
53294;DHT22;39181;53.440;5.644;2023-11-21T15:44:20;7.50;99.90
53294;DHT22;39181;53.440;5.644;2023-11-21T15:46:45;7.30;99.90
53294;DHT22;39181;53.440;5.644;2023-11-21T15:49:11;7.10;99.90
53294;DHT22;39181;53.440;5.644;2023-11-21T15:51:43;7.90;99.90
53294;DHT22;39181;53.440;5.644;2023-11-21T15:54:12;7.90;99.90
53294;DHT22;39181;53.440;5.644;2023-11-21T15:56:38;7.40;99.90
53294;DHT22;39181;53.440;5.644;2023-11-21T15:59:04;7.50;99.90
53294;DHT22;39181;53.440;5.644;2023-11-21T16:01:30;7.60;99.90